• Join FlightAware (Why Join?)
  • Login
  • US Flag GB Flag 
22:12 EST


 

Airport Tracker/Info


-or-


 

Live Flight TrackerFlight Track Log ✈ JBU1329 ✈ 15-May-2013 ✈ KBOS - KBWI

Flight Track Log - Related Links

Times and Time Zones

All times are in EDT time to prevent confusion due to time zone crossing. See the JBU1329 flight status page for this flight to view local times or setup timezone preferences in your user account.

Time Position Orientation Groundspeed Altitude Reporting Facility
EDT Latitude Longitude Course Direction KTS MPH feet Rate Location/Type
09:16 42.3500 -71.0000 270° West 154 177 600  Level KA90
09:18 42.3189 -70.8761 109° East 245 282 7,000 3,120 Climbing Boston Center
09:19 42.2893 -70.7328 228° Southwest  Level FlightAware Approximate
09:19 42.3211 -70.7553 89° East 266 306 10,800  Level Boston Center
09:20 42.2261 -70.8335 240° Southwest  Level FlightAware Approximate
09:20 42.2333 -70.7353 170° South 223 257 12,700  Level Boston Center
09:21 42.1833 -70.9502 270° West  Level FlightAware Approximate
09:21 42.1956 -70.8539 247° West 187 215 15,800  Level Boston Center
09:22 42.1825 -70.9664 261° West 286 329 18,500 2,820 Climbing Boston Center
09:23 42.1656 -71.1153 261° West 344 396 21,500 2,640 Climbing Boston Center
09:24 42.1483 -71.2500 260° West 360 414 23,800 2,160 Climbing Boston Center
09:25 42.1286 -71.3847 259° West 372 428 25,900 1,920 Climbing Boston Center
09:26 42.1092 -71.5306 260° West 383 441 27,700 1,920 Climbing Boston Center
09:27 42.0853 -71.6681 257° West 383 441 29,800 2,100 Climbing Boston Center
09:28 42.0672 -71.8081 260° West 383 441 32,000 1,080 Climbing Boston Center
09:29 42.0472 -71.9508 259° West 389 448 32,000  Level Boston Center
09:30 42.0206 -72.0964 256° West 394 453 32,000  Level Boston Center
09:31 41.9564 -72.2364 238° Southwest 409 471 32,000  Level Boston Center
09:32 41.8897 -72.3703 236° Southwest 428 493 32,000  Level Boston Center
09:33 41.8211 -72.5069 236° Southwest 440 506 32,000  Level Boston Center
09:34 41.7542 -72.6433 237° Southwest 445 512 32,000  Level Boston Center
09:35 41.6872 -72.7764 236° Southwest 439 505 32,000  Level Boston Center
09:36 41.6200 -72.9122 237° Southwest 439 505 32,000  Level Boston Center
09:37 41.5525 -73.0475 236° Southwest 439 505 32,000  Level Boston Center
09:38 41.4872 -73.1800 237° Southwest 439 505 32,000 -180 Level Boston Center
09:39 41.4194 -73.3147 236° Southwest 433 498 31,700 -1,200 Descending Boston Center
09:40 41.3519 -73.4439 235° Southwest 439 505 29,700 -1,200 Descending Boston Center
09:43 41.2086 -73.7000 233° Southwest 422 486 28,000 -540 Descending New York Center
09:44 41.1344 -73.8264 232° Southwest 433 498 28,000  Level New York Center
09:45 41.0606 -73.9522 232° Southwest 433 498 28,000 -360 Level New York Center
09:46 40.9839 -74.0833 232° Southwest 426 490 27,300 -900 Descending New York Center
09:47 40.9097 -74.2031 231° Southwest 426 490 26,300 -660 Descending New York Center
09:48 40.8394 -74.3203 232° Southwest 426 490 26,000 -180 Descending New York Center
09:49 40.7694 -74.4344 231° Southwest 426 490 26,000  Level New York Center
09:50 40.7056 -74.5433 232° Southwest 421 484 26,000  Level New York Center
09:51 40.6353 -74.6569 231° Southwest 421 484 26,000  Level New York Center
09:52 40.5625 -74.7731 230° Southwest 415 478 26,000  Level New York Center
09:53 40.4881 -74.8778 227° Southwest 410 472 26,000 -360 Level New York Center
09:54 40.4111 -74.9878 227° Southwest 410 472 25,400 -1,380 Descending New York Center
09:55 40.3322 -75.0947 226° Southwest 410 472 23,300 -2,100 Descending New York Center
09:56 40.2575 -75.2014 227° Southwest 405 466 21,200 -2,100 Descending New York Center
09:57 40.1850 -75.3028 227° Southwest 399 459 19,100 -1,620 Descending New York Center
09:58 40.1033 -75.4142 226° Southwest 394 453 18,000 -600 Descending New York Center
09:59 40.0394 -75.5047 227° Southwest 382 440 18,000  Level New York Center
10:00 39.9622 -75.6106 226° Southwest 382 440 18,000  Level New York Center
10:01 39.9019 -75.7039 230° Southwest 382 440 18,000 -780 Level New York Center
10:02 39.8364 -75.8236 235° Southwest 375 432 16,500 -1,920 Descending New York Center
10:03 39.7333 -76.0167 235° Southwest 340 391 12,600 -1,620 Descending Potomac TRACON
10:04 39.6833 -76.1167 237° Southwest 303 349 12,000 -780 Descending Potomac TRACON
10:05 39.6500 -76.2000 243° Southwest 283 326 11,100 -1,320 Descending Potomac TRACON
10:06 39.6000 -76.2833 232° Southwest 274 315 9,400 -1,680 Descending Potomac TRACON
10:07 39.5333 -76.3333 210° Southwest 279 321 7,800 -1,680 Descending Potomac TRACON
10:08 39.4833 -76.4000 226° Southwest 274 315 6,100 -1,440 Descending Potomac TRACON
10:09 39.4000 -76.4167 189° South 285 328 5,000 -600 Descending Potomac TRACON
10:10 39.3333 -76.4000 169° South 286 329 5,000 -360 Level Potomac TRACON
10:11 39.2500 -76.4000 180° South 288 331 4,300 -540 Descending Potomac TRACON
10:12 39.1667 -76.3833 171° South 284 327 4,000 -420 Descending Potomac TRACON
10:13 39.1333 -76.4500 237° Southwest 214 246 3,500 -540 Descending Potomac TRACON
10:14 39.0833 -76.5000 218° Southwest 196 226 3,000 -780 Descending Potomac TRACON
10:15 39.0833 -76.5500 270° West 158 182 2,000 -780 Descending Potomac TRACON
10:16 39.1000 -76.6000 293° West 165 190 1,500 -600 Descending Potomac TRACON
10:17 39.1333 -76.6333 322° Northwest 139 160 900 -600 Descending Potomac TRACON
10:19 39.1754 -76.6683 25° Northeast  Level Estimated